Flugmeteorologie

  • METAR LHSM 210415Z AUTO 00000KT 8000 NCD 18/17 Q1017=
  • METAR LHSM 210345Z AUTO VRB02KT 8000 NCD 17/17 Q1017=
  • METAR LHSM 210315Z AUTO VRB02KT 8000 NCD 17/16 Q1016=
  • METAR LHSM 210245Z AUTO VRB01KT 9000 -SHRA NSC 18/16 Q1016=
  • METAR LHSM 210215Z AUTO VRB02KT 9000 NSC 17/16 Q1016=

  • TAF LHSM 201415Z 2015/2024 19008KT CAVOK=
  • TAF LHSM 201115Z 2012/2021 19008KT CAVOK=
  • TAF LHSM 200815Z 2009/2018 19008KT CAVOK=
  • TAF LHSM 200515Z 2006/2015 VRB01KT 5000 BR NSC
  • TAF LHSM 191115Z 1912/1921 18004KT CAVOK